ΕΜΥ, Εθνική Μετεωρολογική Υπηρεσία - Δελτία Καιρού, Προγνώσεις

ΑΕΡΟΝΑΥΤΙΛΙΑ

GREEK AIRPORTS CODES

LGKA 300900Z 28010KT 9999 FEW025 17/06 Q1014 RMK FEW080=

EUROPEAN AIRPORTS CODES

LFPO 300930Z 24008KT 9999 BKN015 BKN053 17/14 Q1015 NOSIG=